createdAt,value
2022-07-30T00:01:14.464Z,3.60
2022-07-30T00:03:40.999Z,3.65
2022-07-30T00:06:07.664Z,3.15
2022-07-30T00:08:34.721Z,3.70
2022-07-30T00:11:01.349Z,4.05
2022-07-30T00:13:27.847Z,3.75
2022-07-30T00:15:54.262Z,3.72
2022-07-30T00:18:21.220Z,3.35
2022-07-30T00:20:49.324Z,3.67
2022-07-30T00:23:15.808Z,4.00
2022-07-30T00:25:42.291Z,4.00
2022-07-30T00:28:08.779Z,4.55
2022-07-30T00:30:35.493Z,4.10
2022-07-30T00:33:02.128Z,3.70
2022-07-30T00:35:28.771Z,4.30
2022-07-30T00:37:55.326Z,3.97
2022-07-30T00:40:22.082Z,4.15
2022-07-30T00:42:48.602Z,4.25
2022-07-30T00:45:16.635Z,4.78
2022-07-30T00:47:43.727Z,4.63
2022-07-30T00:50:12.127Z,4.53
2022-07-30T00:52:39.511Z,3.95
2022-07-30T00:55:08.980Z,4.70
2022-07-30T00:57:36.028Z,4.75
2022-07-30T01:00:03.830Z,5.10
2022-07-30T01:02:30.476Z,4.80
2022-07-30T01:04:56.923Z,4.28
2022-07-30T01:07:24.032Z,5.15
2022-07-30T01:09:53.733Z,5.20
2022-07-30T01:12:23.127Z,4.85
2022-07-30T01:14:49.731Z,5.05
2022-07-30T01:17:16.269Z,5.03
2022-07-30T01:19:53.664Z,5.32
2022-07-30T01:22:26.571Z,5.60
2022-07-30T01:25:27.811Z,6.07
2022-07-30T01:27:59.559Z,5.75
2022-07-30T01:30:28.933Z,5.32
2022-07-30T01:32:57.769Z,5.38
2022-07-30T01:35:26.597Z,5.97
2022-07-30T01:37:55.529Z,5.57
2022-07-30T01:40:25.000Z,6.18
2022-07-30T01:42:54.934Z,5.90
2022-07-30T01:45:24.422Z,6.00
2022-07-30T01:47:55.849Z,6.10
2022-07-30T01:50:22.807Z,6.72
2022-07-30T01:52:52.277Z,7.45
2022-07-30T01:55:41.257Z,8.68
2022-07-30T01:58:09.915Z,8.93
2022-07-30T02:00:43.421Z,8.95
2022-07-30T02:03:10.788Z,8.70
2022-07-30T02:05:38.947Z,9.35
2022-07-30T02:08:15.996Z,8.98
2022-07-30T02:10:48.907Z,9.73
2022-07-30T02:13:22.512Z,10.40
2022-07-30T02:15:52.022Z,9.52
2022-07-30T02:18:26.064Z,11.18
2022-07-30T02:20:59.761Z,10.63
2022-07-30T02:23:31.027Z,9.38
2022-07-30T02:26:00.646Z,9.95
2022-07-30T02:28:29.630Z,10.25
2022-07-30T02:31:01.138Z,9.75
2022-07-30T02:33:30.941Z,10.55
2022-07-30T02:35:59.099Z,9.55
2022-07-30T02:38:28.521Z,9.13
2022-07-30T02:40:59.033Z,8.98
2022-07-30T02:43:27.071Z,8.90
2022-07-30T02:45:53.881Z,9.13
2022-07-30T02:48:34.416Z,8.35
2022-07-30T02:51:04.069Z,8.20
2022-07-30T02:53:31.156Z,8.27
2022-07-30T02:56:00.297Z,8.25
2022-07-30T02:58:28.510Z,7.75
2022-07-30T03:00:57.077Z,9.25
2022-07-30T03:03:29.027Z,8.50
2022-07-30T03:05:56.763Z,9.07
2022-07-30T03:08:26.255Z,9.43
2022-07-30T03:10:57.740Z,8.07
2022-07-30T03:13:25.380Z,7.25
2022-07-30T03:15:53.949Z,8.68
2022-07-30T03:18:22.080Z,8.40
2022-07-30T03:20:56.210Z,7.82
2022-07-30T03:23:24.149Z,8.60
2022-07-30T03:26:05.346Z,9.15
2022-07-30T03:28:34.285Z,9.00
2022-07-30T03:31:01.586Z,7.57
2022-07-30T03:33:38.381Z,8.90
2022-07-30T03:36:06.928Z,8.75
2022-07-30T03:38:36.638Z,9.13
2022-07-30T03:41:04.678Z,7.53
2022-07-30T03:43:33.234Z,8.07
2022-07-30T03:46:03.384Z,8.88
2022-07-30T03:48:31.215Z,7.63
2022-07-30T03:50:59.117Z,7.97
2022-07-30T03:53:27.613Z,8.23
2022-07-30T03:55:54.843Z,9.23
2022-07-30T03:58:21.497Z,8.05
2022-07-30T04:00:50.130Z,8.63
2022-07-30T04:03:31.389Z,8.50
2022-07-30T04:08:25.138Z,7.10
2022-07-30T04:10:52.528Z,8.38
2022-07-30T04:13:19.185Z,8.57
2022-07-30T04:16:37.361Z,7.45
2022-07-30T04:18:45.177Z,8.77
2022-07-30T04:21:17.266Z,8.30
2022-07-30T04:24:02.235Z,8.70
2022-07-30T04:26:33.641Z,9.10
2022-07-30T04:29:01.383Z,8.85
2022-07-30T04:31:29.167Z,8.82
2022-07-30T04:33:55.809Z,7.90
2022-07-30T04:36:33.213Z,8.10
2022-07-30T04:39:00.177Z,6.77
2022-07-30T04:41:26.678Z,7.70
2022-07-30T04:43:53.345Z,7.70
2022-07-30T04:46:20.910Z,7.55
2022-07-30T04:48:51.789Z,7.07
2022-07-30T04:51:25.457Z,7.28
2022-07-30T04:53:54.668Z,7.40
2022-07-30T04:56:22.709Z,8.38
2022-07-30T04:58:50.825Z,7.10
2022-07-30T05:01:24.070Z,7.25
2022-07-30T05:04:05.844Z,7.72
2022-07-30T05:06:33.010Z,6.90
2022-07-30T05:09:02.049Z,7.32
2022-07-30T05:11:28.519Z,7.63
2022-07-30T05:13:55.020Z,7.25
2022-07-30T05:16:21.794Z,7.47
2022-07-30T05:18:48.314Z,7.50
2022-07-30T05:21:14.837Z,7.47
2022-07-30T05:23:41.339Z,7.38
2022-07-30T05:26:20.472Z,7.38
2022-07-30T05:28:52.125Z,6.95
2022-07-30T05:31:20.641Z,6.07
2022-07-30T05:33:47.833Z,7.18
2022-07-30T05:36:14.300Z,7.57
2022-07-30T05:38:40.859Z,6.80
2022-07-30T05:41:19.106Z,7.00
2022-07-30T05:43:55.938Z,7.05
2022-07-30T05:46:23.377Z,6.97
2022-07-30T05:48:50.055Z,7.07
2022-07-30T05:51:18.672Z,7.20
2022-07-30T05:53:45.310Z,7.88
2022-07-30T05:56:11.896Z,8.00
2022-07-30T05:58:38.335Z,7.57
2022-07-30T06:01:04.900Z,6.97
2022-07-30T06:03:31.447Z,7.18
2022-07-30T06:05:57.990Z,7.60
2022-07-30T06:08:24.500Z,6.47
2022-07-30T06:10:51.144Z,7.20
2022-07-30T06:13:17.581Z,6.75
2022-07-30T06:15:44.133Z,6.78
2022-07-30T06:18:13.617Z,6.88
2022-07-30T06:20:42.144Z,6.78
2022-07-30T06:23:08.686Z,7.10
2022-07-30T06:25:35.153Z,5.90
2022-07-30T06:28:27.748Z,5.88
2022-07-30T06:30:54.322Z,5.57
2022-07-30T06:33:20.861Z,5.63
2022-07-30T06:35:48.817Z,5.80
2022-07-30T06:38:15.416Z,3.55
2022-07-30T06:40:41.886Z,5.28
2022-07-30T06:43:11.316Z,4.35
2022-07-30T06:45:37.971Z,5.55
2022-07-30T06:48:04.788Z,4.80
2022-07-30T06:50:31.408Z,5.32
2022-07-30T06:52:58.124Z,5.10
2022-07-30T06:55:25.515Z,5.18
2022-07-30T06:57:52.290Z,4.82
2022-07-30T07:00:18.964Z,4.88
2022-07-30T07:02:45.427Z,4.50
2022-07-30T07:05:12.618Z,5.00
2022-07-30T07:07:44.308Z,4.32
2022-07-30T07:10:15.422Z,5.38
2022-07-30T07:12:42.032Z,3.97
2022-07-30T07:15:09.714Z,4.07
2022-07-30T07:17:36.261Z,3.90
2022-07-30T07:20:03.239Z,4.35
2022-07-30T07:22:29.863Z,4.30
2022-07-30T07:24:56.558Z,4.55
2022-07-30T07:27:23.846Z,3.70
2022-07-30T07:30:04.771Z,4.30
2022-07-30T07:32:33.728Z,3.78
2022-07-30T07:35:00.201Z,3.90
2022-07-30T07:37:26.913Z,3.00
2022-07-30T07:39:53.680Z,4.15
2022-07-30T07:42:20.234Z,4.20
2022-07-30T07:44:46.707Z,3.38
2022-07-30T07:47:13.190Z,4.00
2022-07-30T07:49:39.945Z,3.67
2022-07-30T07:52:06.833Z,4.07
2022-07-30T07:54:33.688Z,3.30
2022-07-30T07:57:03.158Z,3.70
2022-07-30T07:59:35.998Z,4.00
2022-07-30T08:02:08.081Z,4.03
2022-07-30T08:04:34.977Z,3.63
2022-07-30T08:07:01.912Z,3.60
2022-07-30T08:09:44.325Z,2.80
2022-07-30T08:12:14.507Z,2.95
2022-07-30T08:14:41.054Z,2.70
2022-07-30T08:17:08.250Z,2.20
2022-07-30T08:19:35.209Z,2.42
2022-07-30T08:22:01.651Z,2.42
2022-07-30T08:24:28.138Z,2.63
2022-07-30T08:26:54.594Z,2.40
2022-07-30T08:29:21.081Z,2.53
2022-07-30T08:31:47.635Z,2.80
2022-07-30T08:34:14.425Z,3.17
2022-07-30T08:36:41.616Z,2.00
2022-07-30T08:39:08.590Z,1.60
2022-07-30T08:41:36.572Z,2.00
2022-07-30T08:44:03.625Z,2.00
2022-07-30T08:46:32.144Z,2.30
2022-07-30T08:49:00.646Z,2.05
2022-07-30T08:51:36.376Z,2.60
2022-07-30T08:54:06.637Z,2.10
2022-07-30T08:56:34.088Z,2.50
2022-07-30T08:59:01.438Z,2.40
2022-07-30T09:01:28.100Z,2.15
2022-07-30T09:03:54.665Z,2.88
2022-07-30T09:06:21.209Z,1.58
2022-07-30T09:08:47.728Z,2.15
2022-07-30T09:11:14.171Z,2.35
2022-07-30T09:13:42.399Z,2.53
2022-07-30T09:16:23.074Z,2.25
2022-07-30T09:18:50.953Z,2.00
2022-07-30T09:21:25.308Z,1.90
2022-07-30T09:24:02.169Z,1.60
2022-07-30T09:26:29.792Z,1.92
2022-07-30T09:29:15.160Z,1.60
2022-07-30T09:32:05.607Z,1.60
2022-07-30T09:34:33.522Z,1.80
2022-07-30T09:37:02.254Z,1.50
2022-07-30T09:39:40.029Z,2.05
2022-07-30T09:42:24.990Z,1.75
2022-07-30T09:44:53.152Z,1.50
2022-07-30T09:47:37.622Z,1.95
2022-07-30T09:50:08.590Z,1.70
2022-07-30T09:52:36.131Z,1.20
2022-07-30T09:55:11.269Z,2.10
2022-07-30T09:57:59.575Z,1.50
2022-07-30T10:00:30.087Z,1.85
2022-07-30T10:02:57.865Z,1.90
2022-07-30T10:05:24.946Z,1.58
2022-07-30T10:08:02.605Z,1.80
2022-07-30T10:10:31.422Z,1.50
2022-07-30T10:13:04.623Z,1.80
2022-07-30T10:15:36.228Z,1.63
2022-07-30T10:18:06.213Z,1.80
2022-07-30T10:20:33.688Z,1.40
2022-07-30T10:23:08.870Z,1.55
2022-07-30T10:25:49.071Z,2.10
2022-07-30T10:28:21.668Z,1.60
2022-07-30T10:30:53.631Z,2.10
2022-07-30T10:33:34.478Z,1.60
2022-07-30T10:36:03.003Z,1.50
2022-07-30T10:38:33.749Z,1.33
2022-07-30T10:41:43.380Z,1.95
2022-07-30T10:44:42.653Z,1.83
2022-07-30T10:47:14.072Z,1.40
2022-07-30T10:49:43.326Z,1.58
2022-07-30T10:52:12.322Z,1.60
2022-07-30T10:54:47.254Z,1.50
2022-07-30T10:57:31.662Z,1.63
2022-07-30T11:00:00.521Z,1.65
2022-07-30T11:02:30.576Z,1.80
2022-07-30T11:05:43.945Z,1.67
2022-07-30T11:08:37.807Z,1.20
2022-07-30T11:12:01.098Z,1.20
2022-07-30T11:14:46.390Z,1.80
2022-07-30T11:17:14.674Z,1.70
2022-07-30T11:20:07.416Z,1.77
2022-07-30T11:22:44.771Z,1.23
2022-07-30T11:25:50.317Z,1.33
2022-07-30T11:28:40.241Z,0.82
2022-07-30T11:31:36.828Z,1.45
2022-07-30T11:34:19.451Z,1.60
2022-07-30T11:37:18.764Z,0.93
2022-07-30T11:39:55.047Z,1.42
2022-07-30T11:42:36.703Z,1.20
2022-07-30T11:45:18.525Z,1.52
2022-07-30T11:47:47.628Z,1.50
2022-07-30T11:50:28.934Z,1.50
2022-07-30T11:53:23.070Z,1.60
2022-07-30T11:55:58.049Z,1.55
2022-07-30T11:58:28.827Z,1.30
2022-07-30T12:00:58.854Z,1.40
2022-07-30T12:03:31.662Z,1.52
2022-07-30T12:06:19.571Z,1.60
2022-07-30T12:08:48.338Z,1.10
2022-07-30T12:11:15.584Z,0.90
2022-07-30T12:13:46.141Z,1.33
2022-07-30T12:16:17.332Z,1.10
2022-07-30T12:18:45.308Z,1.15
2022-07-30T12:21:12.554Z,1.30
2022-07-30T12:23:39.541Z,1.35
2022-07-30T12:26:06.258Z,1.10
2022-07-30T12:28:35.704Z,1.40
2022-07-30T12:31:04.317Z,1.10
2022-07-30T12:33:31.274Z,1.10
2022-07-30T12:35:59.676Z,1.48
2022-07-30T12:38:28.275Z,1.52
2022-07-30T12:41:04.900Z,1.23
2022-07-30T12:44:00.826Z,1.40
2022-07-30T12:46:28.172Z,0.90
2022-07-30T12:48:57.366Z,1.23
2022-07-30T12:51:26.769Z,1.00
2022-07-30T12:53:56.423Z,1.30
2022-07-30T12:56:26.358Z,1.45
2022-07-30T12:58:53.887Z,1.20
2022-07-30T13:01:39.015Z,1.17
2022-07-30T13:04:05.773Z,1.38
2022-07-30T13:06:32.175Z,1.45
2022-07-30T13:08:59.579Z,1.40
2022-07-30T13:11:37.364Z,1.52
2022-07-30T13:14:04.306Z,1.30
2022-07-30T13:16:32.661Z,1.33
2022-07-30T13:18:59.107Z,1.65
2022-07-30T13:21:25.599Z,1.50
2022-07-30T13:23:52.000Z,1.10
2022-07-30T13:26:18.380Z,1.30
2022-07-30T13:28:46.474Z,1.40
2022-07-30T13:31:13.204Z,1.30
2022-07-30T13:33:39.809Z,1.13
2022-07-30T13:36:07.045Z,1.50
2022-07-30T13:38:33.528Z,1.10
2022-07-30T13:41:02.653Z,1.30
2022-07-30T13:43:29.646Z,1.30
2022-07-30T13:46:03.197Z,1.23
2022-07-30T13:48:29.987Z,1.40
2022-07-30T13:50:56.643Z,1.33
2022-07-30T13:53:23.240Z,1.60
2022-07-30T13:55:49.627Z,1.30
2022-07-30T13:58:16.037Z,0.98
2022-07-30T14:00:45.003Z,0.93
2022-07-30T14:03:11.839Z,1.20
2022-07-30T14:05:42.278Z,1.00
2022-07-30T14:08:09.693Z,1.02
2022-07-30T14:10:37.118Z,1.67
2022-07-30T14:13:05.825Z,1.23
2022-07-30T14:15:32.742Z,1.00
2022-07-30T14:18:00.538Z,0.90
2022-07-30T14:20:29.065Z,1.30
2022-07-30T14:22:56.209Z,1.00
2022-07-30T14:25:23.139Z,1.00
2022-07-30T14:27:49.720Z,1.27
2022-07-30T14:30:16.218Z,0.90
2022-07-30T14:32:42.658Z,1.02
2022-07-30T14:35:10.410Z,1.23
2022-07-30T14:37:38.061Z,0.90
2022-07-30T14:40:09.910Z,1.10
2022-07-30T14:42:36.424Z,0.95
2022-07-30T14:45:10.027Z,1.20
2022-07-30T14:47:37.123Z,1.05
2022-07-30T14:50:04.663Z,1.15
2022-07-30T14:52:34.768Z,1.63
2022-07-30T14:55:04.002Z,1.00
2022-07-30T14:57:30.672Z,1.08
2022-07-30T14:59:57.143Z,0.90
2022-07-30T15:02:23.684Z,0.82
2022-07-30T15:04:50.375Z,1.02
2022-07-30T15:07:17.015Z,1.00
2022-07-30T15:09:43.475Z,1.15
2022-07-30T15:12:10.185Z,0.80
2022-07-30T15:14:40.326Z,0.98
2022-07-30T15:17:08.174Z,1.02
2022-07-30T15:19:34.883Z,1.00
2022-07-30T15:22:03.033Z,1.25
2022-07-30T15:24:30.824Z,1.00
2022-07-30T15:26:57.409Z,1.10
2022-07-30T15:29:24.256Z,0.88
2022-07-30T15:31:51.683Z,1.10
2022-07-30T15:34:18.225Z,1.20
2022-07-30T15:36:45.075Z,1.00
2022-07-30T15:39:11.538Z,1.30
2022-07-30T15:41:37.951Z,1.00
2022-07-30T15:44:05.261Z,1.00
2022-07-30T15:46:31.709Z,1.02
2022-07-30T15:48:58.338Z,1.00
2022-07-30T15:51:24.922Z,1.55
2022-07-30T15:53:52.593Z,0.90
2022-07-30T15:56:19.463Z,1.00
2022-07-30T15:58:45.970Z,1.33
2022-07-30T16:01:12.722Z,1.17
2022-07-30T16:03:39.421Z,1.05
2022-07-30T16:06:05.946Z,1.02
2022-07-30T16:08:32.386Z,1.10
2022-07-30T16:10:58.984Z,0.80
2022-07-30T16:13:25.560Z,1.08
2022-07-30T16:15:52.115Z,0.93
2022-07-30T16:18:19.801Z,1.02
2022-07-30T16:20:46.431Z,1.15
2022-07-30T16:23:20.844Z,0.80
2022-07-30T16:25:47.866Z,0.85
2022-07-30T16:28:14.343Z,0.88
2022-07-30T16:30:50.948Z,0.88
2022-07-30T16:33:18.924Z,1.25
2022-07-30T16:35:49.399Z,0.98
2022-07-30T16:38:19.437Z,1.00
2022-07-30T16:40:46.187Z,1.20
2022-07-30T16:43:12.760Z,1.15
2022-07-30T16:45:43.546Z,1.20
2022-07-30T16:48:11.209Z,1.00
2022-07-30T16:50:42.602Z,0.90
2022-07-30T16:53:14.159Z,1.30
2022-07-30T16:55:41.765Z,0.90
2022-07-30T16:58:08.422Z,1.10
2022-07-30T17:00:34.842Z,1.25
2022-07-30T17:03:01.478Z,1.10
2022-07-30T17:05:28.074Z,1.00
2022-07-30T17:07:54.689Z,1.10
2022-07-30T17:10:25.632Z,1.33
2022-07-30T17:12:53.777Z,1.23
2022-07-30T17:15:20.175Z,1.17
2022-07-30T17:17:58.871Z,1.40
2022-07-30T17:20:25.309Z,1.30
2022-07-30T17:22:55.047Z,1.52
2022-07-30T17:25:23.112Z,1.58
2022-07-30T17:27:49.608Z,1.10
2022-07-30T17:30:16.174Z,1.20
2022-07-30T17:32:42.672Z,1.33
2022-07-30T17:35:13.724Z,1.10
2022-07-30T17:37:40.726Z,1.10
2022-07-30T17:40:30.301Z,1.50
2022-07-30T17:42:54.344Z,1.50
2022-07-30T17:45:20.834Z,1.38
2022-07-30T17:47:49.912Z,1.20
2022-07-30T17:50:16.744Z,1.00
2022-07-30T17:52:43.311Z,1.20
2022-07-30T17:55:12.463Z,1.42
2022-07-30T17:57:40.440Z,1.30
2022-07-30T18:00:08.635Z,1.60
2022-07-30T18:02:35.821Z,1.30
2022-07-30T18:05:02.540Z,1.58
2022-07-30T18:07:29.361Z,1.20
2022-07-30T18:09:59.709Z,1.35
2022-07-30T18:12:26.339Z,1.30
2022-07-30T18:14:53.192Z,1.30
2022-07-30T18:17:19.647Z,1.23
2022-07-30T18:19:46.170Z,1.48
2022-07-30T18:22:14.549Z,1.17
2022-07-30T18:24:43.932Z,1.52
2022-07-30T18:27:12.096Z,1.50
2022-07-30T18:29:38.540Z,1.65
2022-07-30T18:32:05.897Z,1.73
2022-07-30T18:34:32.889Z,1.42
2022-07-30T18:36:59.365Z,1.85
2022-07-30T18:39:25.958Z,1.88
2022-07-30T18:41:52.525Z,1.50
2022-07-30T18:44:19.019Z,1.67
2022-07-30T18:46:45.472Z,1.92
2022-07-30T18:49:34.241Z,4.75
2022-07-30T18:51:59.333Z,4.93
2022-07-30T18:54:25.858Z,2.92
2022-07-30T18:56:52.281Z,1.92
2022-07-30T18:59:18.941Z,1.60
2022-07-30T19:01:45.457Z,1.88
2022-07-30T19:04:11.972Z,1.73
2022-07-30T19:06:38.599Z,1.30
2022-07-30T19:09:05.757Z,1.63
2022-07-30T19:11:44.600Z,1.40
2022-07-30T19:14:13.014Z,1.50
2022-07-30T19:16:39.620Z,1.30
2022-07-30T19:19:06.096Z,1.60
2022-07-30T19:21:32.573Z,1.30
2022-07-30T19:23:59.038Z,1.52
2022-07-30T19:26:25.644Z,1.60
2022-07-30T19:28:52.179Z,1.38
2022-07-30T19:31:18.967Z,1.45
2022-07-30T19:33:45.384Z,1.38
2022-07-30T19:36:12.938Z,1.77
2022-07-30T19:38:41.964Z,1.65
2022-07-30T19:41:08.698Z,1.30
2022-07-30T19:43:35.431Z,1.27
2022-07-30T19:46:04.078Z,1.58
2022-07-30T19:48:32.415Z,1.67
2022-07-30T19:51:00.824Z,1.90
2022-07-30T19:53:31.516Z,1.35
2022-07-30T19:56:04.637Z,1.20
2022-07-30T19:58:37.770Z,1.30
2022-07-30T20:01:08.466Z,1.35
2022-07-30T20:03:36.119Z,1.33
2022-07-30T20:06:05.921Z,1.30
2022-07-30T20:08:36.902Z,1.40
2022-07-30T20:11:08.185Z,1.60
2022-07-30T20:13:44.158Z,1.50
2022-07-30T20:16:16.638Z,1.30
2022-07-30T20:18:46.191Z,1.55
2022-07-30T20:21:15.808Z,1.35
2022-07-30T20:23:43.462Z,1.27
2022-07-30T20:26:13.619Z,1.58
2022-07-30T20:28:41.255Z,1.13
2022-07-30T20:31:08.560Z,1.27
2022-07-30T20:33:36.109Z,1.48
2022-07-30T20:36:04.592Z,1.90
2022-07-30T20:38:33.634Z,1.52
2022-07-30T20:41:02.607Z,1.40
2022-07-30T20:43:29.551Z,1.13
2022-07-30T20:45:56.193Z,1.70
2022-07-30T20:48:25.551Z,1.40
2022-07-30T20:50:52.609Z,1.40
2022-07-30T20:53:19.907Z,1.30
2022-07-30T20:55:47.568Z,1.88
2022-07-30T20:58:16.729Z,1.52
2022-07-30T21:00:49.285Z,1.38
2022-07-30T21:03:16.927Z,1.48
2022-07-30T21:05:44.049Z,1.70
2022-07-30T21:08:12.181Z,1.50
2022-07-30T21:10:40.766Z,1.20
2022-07-30T21:13:10.939Z,1.40
2022-07-30T21:15:45.298Z,1.55
2022-07-30T21:18:25.069Z,1.40
2022-07-30T21:20:53.205Z,1.63
2022-07-30T21:23:22.371Z,1.42
2022-07-30T21:26:03.025Z,1.33
2022-07-30T21:28:35.526Z,1.30
2022-07-30T21:31:04.029Z,1.73
2022-07-30T21:33:34.778Z,1.73
2022-07-30T21:36:01.316Z,1.67
2022-07-30T21:41:15.252Z,1.50
2022-07-30T21:43:43.849Z,1.50
2022-07-30T21:46:11.012Z,2.03
2022-07-30T21:48:37.614Z,1.55
2022-07-30T21:51:06.708Z,1.80
2022-07-30T21:53:45.108Z,1.60
2022-07-30T21:56:13.893Z,1.48
2022-07-30T21:58:41.305Z,1.33
2022-07-30T22:01:16.776Z,1.50
2022-07-30T22:04:02.872Z,1.75
2022-07-30T22:06:33.508Z,1.95
2022-07-30T22:09:00.353Z,1.52
2022-07-30T22:11:42.268Z,1.67
2022-07-30T22:14:10.329Z,1.60
2022-07-30T22:16:38.127Z,1.48
2022-07-30T22:19:12.600Z,1.85
2022-07-30T22:21:40.924Z,1.50
2022-07-30T22:24:07.700Z,1.83
2022-07-30T22:26:34.304Z,1.73
2022-07-30T22:29:01.064Z,1.60
2022-07-30T22:31:30.923Z,1.65
2022-07-30T22:34:11.322Z,1.63
2022-07-30T22:36:38.369Z,1.40
2022-07-30T22:39:08.944Z,1.70
2022-07-30T22:41:39.132Z,1.58
2022-07-30T22:44:06.676Z,1.80
2022-07-30T22:46:38.721Z,1.73
2022-07-30T22:49:23.616Z,1.60
2022-07-30T22:52:06.561Z,1.50
2022-07-30T22:54:42.952Z,1.52
2022-07-30T22:57:09.829Z,1.40
2022-07-30T22:59:58.005Z,1.60
2022-07-30T23:02:26.070Z,1.38
2022-07-30T23:04:54.632Z,1.23
2022-07-30T23:07:23.294Z,1.70
2022-07-30T23:09:51.900Z,1.40
2022-07-30T23:12:20.229Z,1.25
2022-07-30T23:12:27.579Z,1.92
2022-07-30T23:14:47.593Z,1.35
2022-07-30T23:17:14.479Z,1.42
2022-07-30T23:19:40.955Z,1.50
2022-07-30T23:22:07.360Z,1.30
2022-07-30T23:24:33.847Z,1.35
2022-07-30T23:27:00.693Z,1.50
2022-07-30T23:29:28.521Z,1.83
2022-07-30T23:31:57.463Z,1.60
2022-07-30T23:34:23.952Z,1.70
2022-07-30T23:36:50.409Z,1.48
2022-07-30T23:39:16.956Z,1.95
2022-07-30T23:41:43.639Z,1.75
2022-07-30T23:44:10.141Z,1.60
2022-07-30T23:46:37.078Z,1.80
2022-07-30T23:49:04.584Z,1.98
2022-07-30T23:51:33.479Z,1.85
2022-07-30T23:54:00.798Z,1.90
2022-07-30T23:56:27.321Z,1.90
2022-07-30T23:58:54.593Z,1.70
